Ana Sayfa
METAR-TAF:

METAR-TAF

Havaalanları :

Loreto, Meksika

Enlem: 26-01N, Boylam: 111-21W, yükseklik: 15 m

Güncel hava durumu gözlemi

Rapor saat 01:40 UTC de 5 saat ve 36 dakika önce yapıldı.
Rüzgar güney/güneydoğudan 8 kt
Sıcaklık 31°C
Nem 59%
Basınç 1005 hPa
Görüş mesafesi: 12.9 km
Açık gökyüzü

METAR: MMLT 150140Z 16008KT 8SM SKC 31/22 A2969 RMK HZY

Saat: 01:16 (07:16 UTC)

Tahmin

Rapor saat 05:39 UTC de 1 saat ve 37 dakika önce yapıldı.
Ayın 15'si saat 06 UTC'den ayın 16'si saat 06 UTC'ye kadar geçerli Tahmin
Rüzgar güney/güneydoğudan 10 kt
Görüş mesafesi: 10 km
Açık gökyüzü
Ayın 15'si saat 1800 UTC'den
Rüzgar doğu/güneydoğudan 10 kt
Görüş mesafesi: 10 km
Açık gökyüzü
Ayın 16'si saat 0000 UTC'den
Rüzgar kuzeydan 5 kt
Görüş mesafesi: 10 km
Açık gökyüzü

TAF: MMLT 150539Z 1506/1606 16010KT P6SM SKC FM151800 12010KT P6SM SKC FM160000 36005KT P6SM SKC

4.000'den fazla havaalanı için hava durumu gözlemleri ve tahminleri (METAR ve TAF raporları).

Kullanılabilir istasyonlar harita üzerinde sarı ve kırmızı noktalarla gösterilir.

İstasyonun adını görmek için fareyi noktanın üzerinde gezdirin.

Sonrasında hava gözlem ve tahminlerini görmek için tıklayın.

Haritayı değiştirmek için: yaklaştırmak için siyah artı işaretli yeşil düğmeye ve uzaklaştırmak için de eksi işaretli düğmeye hızla tıklayın; bitişik haritalar için yeşil okları kullanın.


METAR-TAF: